sensor_id;sensor_type;location;lat;lon;timestamp;noise_LAeq;noise_LA_min;noise_LA_max;noise_LA01;noise_LA95
48148;Laerm;29352;48.708;9.290;2024-03-25T00:01:33;15.00;15.00;15.00;;
48148;Laerm;29352;48.708;9.290;2024-03-25T00:03:58;15.00;15.00;15.00;;
48148;Laerm;29352;48.708;9.290;2024-03-25T00:06:24;15.00;15.00;15.00;;
48148;Laerm;29352;48.708;9.290;2024-03-25T00:08:50;15.00;15.00;15.00;;
48148;Laerm;29352;48.708;9.290;2024-03-25T00:11:15;15.00;15.00;15.00;;
48148;Laerm;29352;48.708;9.290;2024-03-25T00:13:41;15.00;15.00;15.00;;
48148;Laerm;29352;48.708;9.290;2024-03-25T00:16:06;15.00;15.00;15.00;;
48148;Laerm;29352;48.708;9.290;2024-03-25T00:18:33;15.00;15.00;15.00;;
48148;Laerm;29352;48.708;9.290;2024-03-25T00:20:58;15.00;15.00;15.00;;
48148;Laerm;29352;48.708;9.290;2024-03-25T00:23:24;15.00;15.00;15.00;;
48148;Laerm;29352;48.708;9.290;2024-03-25T00:25:50;15.00;15.00;15.00;;
48148;Laerm;29352;48.708;9.290;2024-03-25T00:28:17;15.00;15.00;15.00;;
48148;Laerm;29352;48.708;9.290;2024-03-25T00:30:44;15.00;15.00;15.00;;
48148;Laerm;29352;48.708;9.290;2024-03-25T00:33:10;15.00;15.00;15.00;;
48148;Laerm;29352;48.708;9.290;2024-03-25T00:35:37;15.00;15.00;15.00;;
48148;Laerm;29352;48.708;9.290;2024-03-25T00:38:03;15.00;15.00;15.00;;
48148;Laerm;29352;48.708;9.290;2024-03-25T00:40:30;15.00;15.00;15.00;;
48148;Laerm;29352;48.708;9.290;2024-03-25T00:42:56;15.00;15.00;15.00;;
48148;Laerm;29352;48.708;9.290;2024-03-25T00:45:21;15.00;15.00;15.00;;
48148;Laerm;29352;48.708;9.290;2024-03-25T00:47:47;15.00;15.00;15.00;;
48148;Laerm;29352;48.708;9.290;2024-03-25T00:50:13;15.00;15.00;15.00;;
48148;Laerm;29352;48.708;9.290;2024-03-25T00:52:40;15.00;15.00;15.00;;
48148;Laerm;29352;48.708;9.290;2024-03-25T00:55:06;15.00;15.00;15.00;;
48148;Laerm;29352;48.708;9.290;2024-03-25T00:57:33;15.00;15.00;15.00;;
48148;Laerm;29352;48.708;9.290;2024-03-25T00:59:59;15.00;15.00;15.00;;
48148;Laerm;29352;48.708;9.290;2024-03-25T01:02:24;15.00;15.00;15.00;;
48148;Laerm;29352;48.708;9.290;2024-03-25T01:04:50;15.00;15.00;15.00;;
48148;Laerm;29352;48.708;9.290;2024-03-25T01:07:15;15.00;15.00;15.00;;
48148;Laerm;29352;48.708;9.290;2024-03-25T01:09:41;15.00;15.00;15.00;;
48148;Laerm;29352;48.708;9.290;2024-03-25T01:12:06;15.00;15.00;15.00;;
48148;Laerm;29352;48.708;9.290;2024-03-25T01:14:32;15.00;15.00;15.00;;
48148;Laerm;29352;48.708;9.290;2024-03-25T01:16:58;15.00;15.00;15.00;;
48148;Laerm;29352;48.708;9.290;2024-03-25T01:19:23;15.00;15.00;15.00;;
48148;Laerm;29352;48.708;9.290;2024-03-25T01:21:49;15.00;15.00;15.00;;
48148;Laerm;29352;48.708;9.290;2024-03-25T01:24:15;15.00;15.00;15.00;;
48148;Laerm;29352;48.708;9.290;2024-03-25T01:26:41;15.00;15.00;15.00;;
48148;Laerm;29352;48.708;9.290;2024-03-25T01:29:06;15.00;15.00;15.00;;
48148;Laerm;29352;48.708;9.290;2024-03-25T01:31:33;15.00;15.00;15.00;;
48148;Laerm;29352;48.708;9.290;2024-03-25T01:33:59;15.00;15.00;15.00;;
48148;Laerm;29352;48.708;9.290;2024-03-25T01:36:25;15.00;15.00;15.00;;
48148;Laerm;29352;48.708;9.290;2024-03-25T01:38:52;15.00;15.00;15.00;;
48148;Laerm;29352;48.708;9.290;2024-03-25T01:41:22;15.00;15.00;15.00;;
48148;Laerm;29352;48.708;9.290;2024-03-25T01:43:52;15.00;15.00;15.00;;
48148;Laerm;29352;48.708;9.290;2024-03-25T01:46:18;15.00;15.00;15.00;;
48148;Laerm;29352;48.708;9.290;2024-03-25T01:48:45;15.00;15.00;15.00;;
48148;Laerm;29352;48.708;9.290;2024-03-25T01:51:16;15.00;15.00;15.00;;
48148;Laerm;29352;48.708;9.290;2024-03-25T01:53:43;15.00;15.00;15.00;;
48148;Laerm;29352;48.708;9.290;2024-03-25T01:56:12;15.00;15.00;15.00;;
48148;Laerm;29352;48.708;9.290;2024-03-25T01:58:39;15.00;15.00;15.00;;
48148;Laerm;29352;48.708;9.290;2024-03-25T02:01:06;15.00;15.00;15.00;;
48148;Laerm;29352;48.708;9.290;2024-03-25T02:03:32;15.00;15.00;15.00;;
48148;Laerm;29352;48.708;9.290;2024-03-25T02:06:06;15.00;15.00;15.00;;
48148;Laerm;29352;48.708;9.290;2024-03-25T02:08:34;15.00;15.00;15.00;;
48148;Laerm;29352;48.708;9.290;2024-03-25T02:11:01;15.00;15.00;15.00;;
48148;Laerm;29352;48.708;9.290;2024-03-25T02:13:28;15.00;15.00;15.00;;
48148;Laerm;29352;48.708;9.290;2024-03-25T02:15:53;15.00;15.00;15.00;;
48148;Laerm;29352;48.708;9.290;2024-03-25T02:18:21;15.00;15.00;15.00;;
48148;Laerm;29352;48.708;9.290;2024-03-25T02:20:47;15.00;15.00;15.00;;
48148;Laerm;29352;48.708;9.290;2024-03-25T02:23:13;15.00;15.00;15.00;;
48148;Laerm;29352;48.708;9.290;2024-03-25T02:25:42;15.00;15.00;15.00;;
48148;Laerm;29352;48.708;9.290;2024-03-25T02:28:09;15.00;15.00;15.00;;
48148;Laerm;29352;48.708;9.290;2024-03-25T02:30:34;15.00;15.00;15.00;;
48148;Laerm;29352;48.708;9.290;2024-03-25T02:33:03;15.00;15.00;15.00;;
48148;Laerm;29352;48.708;9.290;2024-03-25T02:35:28;15.00;15.00;15.00;;
48148;Laerm;29352;48.708;9.290;2024-03-25T02:37:55;15.00;15.00;15.00;;
48148;Laerm;29352;48.708;9.290;2024-03-25T02:40:21;15.00;15.00;15.00;;
48148;Laerm;29352;48.708;9.290;2024-03-25T02:42:49;15.00;15.00;15.00;;
48148;Laerm;29352;48.708;9.290;2024-03-25T02:45:15;15.00;15.00;15.00;;
48148;Laerm;29352;48.708;9.290;2024-03-25T02:50:06;15.00;15.00;15.00;;
48148;Laerm;29352;48.708;9.290;2024-03-25T02:52:32;15.00;15.00;15.00;;
48148;Laerm;29352;48.708;9.290;2024-03-25T02:54:58;15.00;15.00;15.00;;
48148;Laerm;29352;48.708;9.290;2024-03-25T02:57:23;15.00;15.00;15.00;;
48148;Laerm;29352;48.708;9.290;2024-03-25T02:59:49;15.00;15.00;15.00;;
48148;Laerm;29352;48.708;9.290;2024-03-25T03:02:14;15.00;15.00;15.00;;
48148;Laerm;29352;48.708;9.290;2024-03-25T03:04:40;15.00;15.00;15.00;;
48148;Laerm;29352;48.708;9.290;2024-03-25T03:07:05;15.00;15.00;15.00;;
48148;Laerm;29352;48.708;9.290;2024-03-25T03:09:31;15.00;15.00;15.00;;
48148;Laerm;29352;48.708;9.290;2024-03-25T03:11:56;15.00;15.00;15.00;;
48148;Laerm;29352;48.708;9.290;2024-03-25T03:14:22;15.00;15.00;15.00;;
48148;Laerm;29352;48.708;9.290;2024-03-25T03:16:48;15.00;15.00;15.00;;
48148;Laerm;29352;48.708;9.290;2024-03-25T03:19:14;15.00;15.00;15.00;;
48148;Laerm;29352;48.708;9.290;2024-03-25T03:21:40;15.00;15.00;15.00;;
48148;Laerm;29352;48.708;9.290;2024-03-25T03:24:06;15.00;15.00;15.00;;
48148;Laerm;29352;48.708;9.290;2024-03-25T03:26:31;15.00;15.00;15.00;;
48148;Laerm;29352;48.708;9.290;2024-03-25T03:28:57;15.00;15.00;15.00;;
48148;Laerm;29352;48.708;9.290;2024-03-25T03:31:24;15.00;15.00;15.00;;
48148;Laerm;29352;48.708;9.290;2024-03-25T03:33:51;15.00;15.00;15.00;;
48148;Laerm;29352;48.708;9.290;2024-03-25T03:36:20;15.00;15.00;15.00;;
48148;Laerm;29352;48.708;9.290;2024-03-25T03:38:46;15.00;15.00;15.00;;
48148;Laerm;29352;48.708;9.290;2024-03-25T03:41:12;15.00;15.00;15.00;;
48148;Laerm;29352;48.708;9.290;2024-03-25T03:43:38;15.00;15.00;15.00;;
48148;Laerm;29352;48.708;9.290;2024-03-25T03:46:04;15.00;15.00;15.00;;
48148;Laerm;29352;48.708;9.290;2024-03-25T03:48:30;15.00;15.00;15.00;;
48148;Laerm;29352;48.708;9.290;2024-03-25T03:50:56;15.00;15.00;15.00;;
48148;Laerm;29352;48.708;9.290;2024-03-25T03:53:22;15.00;15.00;15.00;;
48148;Laerm;29352;48.708;9.290;2024-03-25T03:55:56;15.00;15.00;15.00;;
48148;Laerm;29352;48.708;9.290;2024-03-25T03:58:25;15.00;15.00;15.00;;
48148;Laerm;29352;48.708;9.290;2024-03-25T04:00:51;15.00;15.00;15.00;;
48148;Laerm;29352;48.708;9.290;2024-03-25T04:03:18;15.00;15.00;15.00;;
48148;Laerm;29352;48.708;9.290;2024-03-25T04:05:44;15.00;15.00;15.00;;
48148;Laerm;29352;48.708;9.290;2024-03-25T04:08:10;15.00;15.00;15.00;;
48148;Laerm;29352;48.708;9.290;2024-03-25T04:10:36;15.00;15.00;15.00;;
48148;Laerm;29352;48.708;9.290;2024-03-25T04:13:04;15.00;15.00;15.00;;
48148;Laerm;29352;48.708;9.290;2024-03-25T04:15:35;15.00;15.00;15.00;;
48148;Laerm;29352;48.708;9.290;2024-03-25T04:18:03;15.00;15.00;15.00;;
48148;Laerm;29352;48.708;9.290;2024-03-25T04:20:39;15.00;15.00;15.00;;
48148;Laerm;29352;48.708;9.290;2024-03-25T04:23:05;15.00;15.00;15.00;;
48148;Laerm;29352;48.708;9.290;2024-03-25T04:25:36;15.00;15.00;15.00;;
48148;Laerm;29352;48.708;9.290;2024-03-25T04:28:04;15.00;15.00;15.00;;
48148;Laerm;29352;48.708;9.290;2024-03-25T04:30:29;15.00;15.00;15.00;;
48148;Laerm;29352;48.708;9.290;2024-03-25T04:32:55;15.00;15.00;15.00;;
48148;Laerm;29352;48.708;9.290;2024-03-25T04:35:20;15.00;15.00;15.00;;
48148;Laerm;29352;48.708;9.290;2024-03-25T04:37:46;15.00;15.00;15.00;;
48148;Laerm;29352;48.708;9.290;2024-03-25T04:40:12;15.00;15.00;15.00;;
48148;Laerm;29352;48.708;9.290;2024-03-25T04:42:44;15.00;15.00;15.00;;
48148;Laerm;29352;48.708;9.290;2024-03-25T04:45:10;49.29;15.00;71.28;;
48148;Laerm;29352;48.708;9.290;2024-03-25T04:47:35;41.26;15.00;51.61;;
48148;Laerm;29352;48.708;9.290;2024-03-25T04:50:01;43.37;15.00;52.22;;
48148;Laerm;29352;48.708;9.290;2024-03-25T04:52:28;29.74;15.00;47.88;;
48148;Laerm;29352;48.708;9.290;2024-03-25T04:54:53;26.51;15.00;46.45;;
48148;Laerm;29352;48.708;9.290;2024-03-25T04:57:19;42.40;15.00;55.04;;
48148;Laerm;29352;48.708;9.290;2024-03-25T04:59:44;53.95;43.44;55.72;;
48148;Laerm;29352;48.708;9.290;2024-03-25T05:02:10;47.03;15.00;55.27;;
48148;Laerm;29352;48.708;9.290;2024-03-25T05:04:36;46.48;15.00;55.23;;
48148;Laerm;29352;48.708;9.290;2024-03-25T05:07:01;38.21;15.00;51.68;;
48148;Laerm;29352;48.708;9.290;2024-03-25T05:09:27;38.72;15.00;48.95;;
48148;Laerm;29352;48.708;9.290;2024-03-25T05:11:52;42.17;15.00;49.58;;
48148;Laerm;29352;48.708;9.290;2024-03-25T05:14:18;45.32;15.00;51.06;;
48148;Laerm;29352;48.708;9.290;2024-03-25T05:16:43;54.13;15.00;90.19;;
48148;Laerm;29352;48.708;9.290;2024-03-25T05:19:09;31.96;15.00;47.88;;
48148;Laerm;29352;48.708;9.290;2024-03-25T05:21:34;25.18;15.00;47.12;;
48148;Laerm;29352;48.708;9.290;2024-03-25T05:24:00;54.01;15.00;90.19;;
48148;Laerm;29352;48.708;9.290;2024-03-25T05:26:26;41.03;15.00;52.16;;
48148;Laerm;29352;48.708;9.290;2024-03-25T05:28:56;46.52;15.00;52.65;;
48148;Laerm;29352;48.708;9.290;2024-03-25T05:31:22;51.86;15.00;55.63;;
48148;Laerm;29352;48.708;9.290;2024-03-25T05:33:48;53.17;40.89;55.42;;
48148;Laerm;29352;48.708;9.290;2024-03-25T05:36:14;54.18;50.03;55.48;;
48148;Laerm;29352;48.708;9.290;2024-03-25T05:38:40;54.37;52.03;55.51;;
48148;Laerm;29352;48.708;9.290;2024-03-25T05:41:07;53.65;49.58;55.54;;
48148;Laerm;29352;48.708;9.290;2024-03-25T05:43:32;51.31;36.91;55.20;;
48148;Laerm;29352;48.708;9.290;2024-03-25T05:45:58;51.78;40.89;54.73;;
48148;Laerm;29352;48.708;9.290;2024-03-25T05:48:27;53.53;46.20;55.60;;
48148;Laerm;29352;48.708;9.290;2024-03-25T05:51:03;53.89;33.90;55.63;;
48148;Laerm;29352;48.708;9.290;2024-03-25T05:53:31;52.67;39.92;55.36;;
48148;Laerm;29352;48.708;9.290;2024-03-25T05:55:57;52.36;33.90;55.48;;
48148;Laerm;29352;48.708;9.290;2024-03-25T05:58:26;53.69;15.00;55.65;;
48148;Laerm;29352;48.708;9.290;2024-03-25T06:00:53;54.58;47.88;55.72;;
48148;Laerm;29352;48.708;9.290;2024-03-25T06:03:19;54.59;53.19;55.66;;
48148;Laerm;29352;48.708;9.290;2024-03-25T06:05:45;54.55;52.22;55.75;;
48148;Laerm;29352;48.708;9.290;2024-03-25T06:08:11;54.49;52.29;55.57;;
48148;Laerm;29352;48.708;9.290;2024-03-25T06:11:06;54.50;15.00;55.69;;
48148;Laerm;29352;48.708;9.290;2024-03-25T06:13:32;54.30;50.03;55.69;;
48148;Laerm;29352;48.708;9.290;2024-03-25T06:15:58;54.18;15.00;55.63;;
48148;Laerm;29352;48.708;9.290;2024-03-25T06:18:24;53.11;15.00;55.57;;
48148;Laerm;29352;48.708;9.290;2024-03-25T06:20:50;54.31;44.69;55.57;;
48148;Laerm;29352;48.708;9.290;2024-03-25T06:23:27;54.43;47.88;55.51;;
48148;Laerm;29352;48.708;9.290;2024-03-25T06:25:55;54.28;44.31;55.36;;
48148;Laerm;29352;48.708;9.290;2024-03-25T06:28:22;54.35;51.89;55.45;;
48148;Laerm;29352;48.708;9.290;2024-03-25T06:30:49;53.54;46.20;55.20;;
48148;Laerm;29352;48.708;9.290;2024-03-25T06:33:34;54.18;50.53;55.30;;
48148;Laerm;29352;48.708;9.290;2024-03-25T06:36:20;54.21;53.14;55.75;;
48148;Laerm;29352;48.708;9.290;2024-03-25T06:38:46;54.16;46.69;55.20;;
48148;Laerm;29352;48.708;9.290;2024-03-25T06:41:12;54.11;50.80;55.30;;
48148;Laerm;29352;48.708;9.290;2024-03-25T06:43:38;53.97;50.33;55.17;;
48148;Laerm;29352;48.708;9.290;2024-03-25T06:46:05;53.83;50.71;54.90;;
48148;Laerm;29352;48.708;9.290;2024-03-25T06:48:32;53.77;51.96;54.97;;
48148;Laerm;29352;48.708;9.290;2024-03-25T06:50:59;53.69;36.91;54.76;;
48148;Laerm;29352;48.708;9.290;2024-03-25T06:53:25;53.69;52.53;54.69;;
48148;Laerm;29352;48.708;9.290;2024-03-25T06:55:56;53.61;48.81;54.80;;
48148;Laerm;29352;48.708;9.290;2024-03-25T06:58:24;53.06;15.00;54.73;;
48148;Laerm;29352;48.708;9.290;2024-03-25T07:00:51;53.70;50.98;54.83;;
48148;Laerm;29352;48.708;9.290;2024-03-25T07:03:19;52.85;15.00;54.87;;
48148;Laerm;29352;48.708;9.290;2024-03-25T07:05:50;51.62;15.00;54.56;;
48148;Laerm;29352;48.708;9.290;2024-03-25T07:08:20;52.81;33.90;54.76;;
48148;Laerm;29352;48.708;9.290;2024-03-25T07:10:46;53.29;15.00;54.97;;
48148;Laerm;29352;48.708;9.290;2024-03-25T07:13:12;53.49;15.00;54.80;;
48148;Laerm;29352;48.708;9.290;2024-03-25T07:15:38;52.21;15.00;54.76;;
48148;Laerm;29352;48.708;9.290;2024-03-25T07:18:05;52.47;15.00;54.83;;
48148;Laerm;29352;48.708;9.290;2024-03-25T07:20:31;52.90;15.00;54.76;;
48148;Laerm;29352;48.708;9.290;2024-03-25T07:22:58;50.72;15.00;54.47;;
48148;Laerm;29352;48.708;9.290;2024-03-25T07:25:24;49.60;15.00;54.39;;
48148;Laerm;29352;48.708;9.290;2024-03-25T07:27:51;45.15;15.00;53.99;;
48148;Laerm;29352;48.708;9.290;2024-03-25T07:30:20;47.23;15.00;53.72;;
48148;Laerm;29352;48.708;9.290;2024-03-25T07:32:50;50.34;15.00;54.07;;
48148;Laerm;29352;48.708;9.290;2024-03-25T07:35:15;52.70;51.14;53.81;;
48148;Laerm;29352;48.708;9.290;2024-03-25T07:37:43;51.80;15.00;53.68;;
48148;Laerm;29352;48.708;9.290;2024-03-25T07:40:09;52.51;47.52;53.86;;
48148;Laerm;29352;48.708;9.290;2024-03-25T07:42:36;52.34;46.69;53.68;;
48148;Laerm;29352;48.708;9.290;2024-03-25T07:45:02;51.75;15.00;53.68;;
48148;Laerm;29352;48.708;9.290;2024-03-25T07:47:27;31.65;15.00;51.22;;
48148;Laerm;29352;48.708;9.290;2024-03-25T07:49:53;50.47;15.00;54.15;;
48148;Laerm;29352;48.708;9.290;2024-03-25T07:52:19;52.36;50.03;53.54;;
48148;Laerm;29352;48.708;9.290;2024-03-25T07:54:44;52.22;47.32;53.68;;
48148;Laerm;29352;48.708;9.290;2024-03-25T07:57:10;49.47;15.00;53.39;;
48148;Laerm;29352;48.708;9.290;2024-03-25T07:59:36;52.11;15.00;53.29;;
48148;Laerm;29352;48.708;9.290;2024-03-25T08:02:01;52.17;15.00;53.44;;
48148;Laerm;29352;48.708;9.290;2024-03-25T08:04:27;52.29;39.92;53.49;;
48148;Laerm;29352;48.708;9.290;2024-03-25T08:06:52;52.26;50.89;53.63;;
48148;Laerm;29352;48.708;9.290;2024-03-25T08:09:18;50.85;15.00;53.44;;
48148;Laerm;29352;48.708;9.290;2024-03-25T08:11:43;43.18;15.00;53.37;;
48148;Laerm;29352;48.708;9.290;2024-03-25T08:14:09;50.95;15.00;64.32;;
48148;Laerm;29352;48.708;9.290;2024-03-25T08:16:35;49.27;15.00;53.14;;
48148;Laerm;29352;48.708;9.290;2024-03-25T08:19:01;47.60;15.00;53.49;;
48148;Laerm;29352;48.708;9.290;2024-03-25T08:21:27;51.79;15.00;53.24;;
48148;Laerm;29352;48.708;9.290;2024-03-25T08:23:53;51.17;15.00;53.24;;
48148;Laerm;29352;48.708;9.290;2024-03-25T08:26:19;51.75;15.00;60.23;;
48148;Laerm;29352;48.708;9.290;2024-03-25T08:28:44;51.92;46.45;53.34;;
48148;Laerm;29352;48.708;9.290;2024-03-25T08:31:10;51.89;43.44;53.39;;
48148;Laerm;29352;48.708;9.290;2024-03-25T08:33:36;51.77;15.00;53.34;;
48148;Laerm;29352;48.708;9.290;2024-03-25T08:36:02;48.85;15.00;53.44;;
48148;Laerm;29352;48.708;9.290;2024-03-25T08:38:28;47.55;15.00;53.09;;
48148;Laerm;29352;48.708;9.290;2024-03-25T08:40:54;50.20;15.00;53.09;;
48148;Laerm;29352;48.708;9.290;2024-03-25T08:43:19;51.24;15.00;53.54;;
48148;Laerm;29352;48.708;9.290;2024-03-25T08:45:45;39.78;15.00;52.88;;
48148;Laerm;29352;48.708;9.290;2024-03-25T08:48:11;15.00;15.00;15.00;;
48148;Laerm;29352;48.708;9.290;2024-03-25T08:50:37;15.00;15.00;15.00;;
48148;Laerm;29352;48.708;9.290;2024-03-25T08:53:04;15.00;15.00;15.00;;
48148;Laerm;29352;48.708;9.290;2024-03-25T08:55:30;15.00;15.00;15.00;;
48148;Laerm;29352;48.708;9.290;2024-03-25T08:57:57;15.00;15.00;15.00;;
48148;Laerm;29352;48.708;9.290;2024-03-25T09:00:26;15.00;15.00;15.00;;
48148;Laerm;29352;48.708;9.290;2024-03-25T09:02:53;15.00;15.00;15.00;;
48148;Laerm;29352;48.708;9.290;2024-03-25T09:05:19;15.00;15.00;15.00;;
48148;Laerm;29352;48.708;9.290;2024-03-25T09:07:45;15.00;15.00;15.00;;
48148;Laerm;29352;48.708;9.290;2024-03-25T09:10:15;15.00;15.00;15.00;;
48148;Laerm;29352;48.708;9.290;2024-03-25T09:12:59;15.00;15.00;15.00;;
48148;Laerm;29352;48.708;9.290;2024-03-25T09:15:25;15.00;15.00;15.00;;
48148;Laerm;29352;48.708;9.290;2024-03-25T09:17:50;15.00;15.00;15.00;;
48148;Laerm;29352;48.708;9.290;2024-03-25T09:20:16;15.00;15.00;15.00;;
48148;Laerm;29352;48.708;9.290;2024-03-25T09:22:43;15.00;15.00;15.00;;
48148;Laerm;29352;48.708;9.290;2024-03-25T09:25:09;15.00;15.00;15.00;;
48148;Laerm;29352;48.708;9.290;2024-03-25T09:27:35;15.00;15.00;15.00;;
48148;Laerm;29352;48.708;9.290;2024-03-25T09:30:01;15.00;15.00;15.00;;
48148;Laerm;29352;48.708;9.290;2024-03-25T09:32:26;15.00;15.00;15.00;;
48148;Laerm;29352;48.708;9.290;2024-03-25T09:34:52;15.00;15.00;15.00;;
48148;Laerm;29352;48.708;9.290;2024-03-25T09:37:18;15.00;15.00;15.00;;
48148;Laerm;29352;48.708;9.290;2024-03-25T09:39:43;15.00;15.00;15.00;;
48148;Laerm;29352;48.708;9.290;2024-03-25T09:42:15;15.00;15.00;15.00;;
48148;Laerm;29352;48.708;9.290;2024-03-25T09:44:44;15.00;15.00;15.00;;
48148;Laerm;29352;48.708;9.290;2024-03-25T09:47:10;15.00;15.00;15.00;;
48148;Laerm;29352;48.708;9.290;2024-03-25T09:49:41;15.00;15.00;15.00;;
48148;Laerm;29352;48.708;9.290;2024-03-25T09:52:08;15.00;15.00;15.00;;
48148;Laerm;29352;48.708;9.290;2024-03-25T09:54:34;15.00;15.00;15.00;;
48148;Laerm;29352;48.708;9.290;2024-03-25T09:57:01;16.30;15.00;44.69;;
48148;Laerm;29352;48.708;9.290;2024-03-25T09:59:29;23.83;15.00;46.45;;
48148;Laerm;29352;48.708;9.290;2024-03-25T10:01:58;30.32;15.00;48.05;;
48148;Laerm;29352;48.708;9.290;2024-03-25T10:04:24;35.20;15.00;49.34;;
48148;Laerm;29352;48.708;9.290;2024-03-25T10:06:50;45.41;15.00;51.38;;
48148;Laerm;29352;48.708;9.290;2024-03-25T10:09:21;48.30;15.00;51.75;;
48148;Laerm;29352;48.708;9.290;2024-03-25T10:11:49;47.70;15.00;51.82;;
48148;Laerm;29352;48.708;9.290;2024-03-25T10:14:16;43.77;15.00;50.96;;
48148;Laerm;29352;48.708;9.290;2024-03-25T10:16:43;25.56;15.00;48.05;;
48148;Laerm;29352;48.708;9.290;2024-03-25T10:19:09;15.00;15.00;15.00;;
48148;Laerm;29352;48.708;9.290;2024-03-25T10:21:35;15.00;15.00;15.00;;
48148;Laerm;29352;48.708;9.290;2024-03-25T10:24:04;15.00;15.00;15.00;;
48148;Laerm;29352;48.708;9.290;2024-03-25T10:26:32;15.00;15.00;15.00;;
48148;Laerm;29352;48.708;9.290;2024-03-25T10:29:07;15.00;15.00;15.00;;
48148;Laerm;29352;48.708;9.290;2024-03-25T10:31:34;15.00;15.00;15.00;;
48148;Laerm;29352;48.708;9.290;2024-03-25T10:34:00;15.00;15.00;15.00;;
48148;Laerm;29352;48.708;9.290;2024-03-25T10:36:27;15.00;15.00;15.00;;
48148;Laerm;29352;48.708;9.290;2024-03-25T10:39:02;15.00;15.00;15.00;;
48148;Laerm;29352;48.708;9.290;2024-03-25T10:41:35;15.00;15.00;15.00;;
48148;Laerm;29352;48.708;9.290;2024-03-25T10:44:06;29.23;15.00;48.52;;
48148;Laerm;29352;48.708;9.290;2024-03-25T10:46:34;35.75;15.00;50.13;;
48148;Laerm;29352;48.708;9.290;2024-03-25T10:49:17;33.27;15.00;50.71;;
48148;Laerm;29352;48.708;9.290;2024-03-25T10:51:47;36.46;15.00;50.03;;
48148;Laerm;29352;48.708;9.290;2024-03-25T10:54:15;15.00;15.00;15.00;;
48148;Laerm;29352;48.708;9.290;2024-03-25T10:56:43;15.00;15.00;15.00;;
48148;Laerm;29352;48.708;9.290;2024-03-25T10:59:12;15.38;15.00;40.89;;
48148;Laerm;29352;48.708;9.290;2024-03-25T11:01:39;15.16;15.00;36.91;;
48148;Laerm;29352;48.708;9.290;2024-03-25T11:04:04;28.87;15.00;48.67;;
48148;Laerm;29352;48.708;9.290;2024-03-25T11:06:32;34.73;15.00;49.70;;
48148;Laerm;29352;48.708;9.290;2024-03-25T11:08:58;45.26;15.00;52.16;;
48148;Laerm;29352;48.708;9.290;2024-03-25T11:11:32;40.32;15.00;51.22;;
48148;Laerm;29352;48.708;9.290;2024-03-25T11:13:58;36.95;15.00;49.92;;
48148;Laerm;29352;48.708;9.290;2024-03-25T11:16:31;36.46;15.00;50.98;;
48148;Laerm;29352;48.708;9.290;2024-03-25T11:19:02;41.53;15.00;51.75;;
48148;Laerm;29352;48.708;9.290;2024-03-25T11:21:28;46.39;15.00;52.09;;
48148;Laerm;29352;48.708;9.290;2024-03-25T11:23:54;44.69;15.00;51.46;;
48148;Laerm;29352;48.708;9.290;2024-03-25T11:26:22;36.90;15.00;51.38;;
48148;Laerm;29352;48.708;9.290;2024-03-25T11:28:49;54.03;15.00;90.19;;
48148;Laerm;29352;48.708;9.290;2024-03-25T11:31:16;15.00;15.00;15.00;;
48148;Laerm;29352;48.708;9.290;2024-03-25T11:33:44;15.00;15.00;15.00;;
48148;Laerm;29352;48.708;9.290;2024-03-25T11:36:09;20.83;15.00;46.20;;
48148;Laerm;29352;48.708;9.290;2024-03-25T11:38:35;15.00;15.00;15.00;;
48148;Laerm;29352;48.708;9.290;2024-03-25T11:41:01;15.00;15.00;15.00;;
48148;Laerm;29352;48.708;9.290;2024-03-25T11:43:27;15.53;15.00;42.35;;
48148;Laerm;29352;48.708;9.290;2024-03-25T11:45:53;46.81;15.00;52.71;;
48148;Laerm;29352;48.708;9.290;2024-03-25T11:48:20;45.63;15.00;52.65;;
48148;Laerm;29352;48.708;9.290;2024-03-25T11:50:47;46.05;15.00;52.53;;
48148;Laerm;29352;48.708;9.290;2024-03-25T11:53:16;33.82;15.00;49.08;;
48148;Laerm;29352;48.708;9.290;2024-03-25T11:55:47;15.15;15.00;33.90;;
48148;Laerm;29352;48.708;9.290;2024-03-25T11:58:14;24.12;15.00;48.81;;
48148;Laerm;29352;48.708;9.290;2024-03-25T12:00:47;46.44;15.00;52.09;;
48148;Laerm;29352;48.708;9.290;2024-03-25T12:03:17;48.01;15.00;52.53;;
48148;Laerm;29352;48.708;9.290;2024-03-25T12:05:46;42.32;15.00;51.14;;
48148;Laerm;29352;48.708;9.290;2024-03-25T12:08:11;15.00;15.00;15.00;;
48148;Laerm;29352;48.708;9.290;2024-03-25T12:10:39;15.00;15.00;15.00;;
48148;Laerm;29352;48.708;9.290;2024-03-25T12:13:25;15.00;15.00;15.00;;
48148;Laerm;29352;48.708;9.290;2024-03-25T12:15:53;15.00;15.00;15.00;;
48148;Laerm;29352;48.708;9.290;2024-03-25T12:18:20;15.00;15.00;15.00;;
48148;Laerm;29352;48.708;9.290;2024-03-25T12:20:47;15.00;15.00;15.00;;
48148;Laerm;29352;48.708;9.290;2024-03-25T12:23:13;15.00;15.00;15.00;;
48148;Laerm;29352;48.708;9.290;2024-03-25T12:25:40;15.00;15.00;15.00;;
48148;Laerm;29352;48.708;9.290;2024-03-25T12:28:09;15.00;15.00;15.00;;
48148;Laerm;29352;48.708;9.290;2024-03-25T12:30:50;15.00;15.00;15.00;;
48148;Laerm;29352;48.708;9.290;2024-03-25T12:33:17;15.00;15.00;15.00;;
48148;Laerm;29352;48.708;9.290;2024-03-25T12:35:46;15.00;15.00;15.00;;
48148;Laerm;29352;48.708;9.290;2024-03-25T12:38:29;15.00;15.00;15.00;;
48148;Laerm;29352;48.708;9.290;2024-03-25T12:41:12;15.00;15.00;15.00;;
48148;Laerm;29352;48.708;9.290;2024-03-25T12:43:43;15.00;15.00;15.00;;
48148;Laerm;29352;48.708;9.290;2024-03-25T12:46:11;15.00;15.00;15.00;;
48148;Laerm;29352;48.708;9.290;2024-03-25T12:48:38;15.00;15.00;15.00;;
48148;Laerm;29352;48.708;9.290;2024-03-25T12:51:04;22.46;15.00;47.70;;
48148;Laerm;29352;48.708;9.290;2024-03-25T12:53:30;15.00;15.00;15.00;;
48148;Laerm;29352;48.708;9.290;2024-03-25T12:55:56;15.00;15.00;15.00;;
48148;Laerm;29352;48.708;9.290;2024-03-25T12:58:22;15.00;15.00;15.00;;
48148;Laerm;29352;48.708;9.290;2024-03-25T13:00:48;15.00;15.00;15.00;;
48148;Laerm;29352;48.708;9.290;2024-03-25T13:03:14;15.00;15.00;15.00;;
48148;Laerm;29352;48.708;9.290;2024-03-25T13:05:42;15.00;15.00;15.00;;
48148;Laerm;29352;48.708;9.290;2024-03-25T13:08:09;15.00;15.00;15.00;;
48148;Laerm;29352;48.708;9.290;2024-03-25T13:10:35;15.00;15.00;15.00;;
48148;Laerm;29352;48.708;9.290;2024-03-25T13:13:02;15.00;15.00;15.00;;
48148;Laerm;29352;48.708;9.290;2024-03-25T13:15:27;15.00;15.00;15.00;;
48148;Laerm;29352;48.708;9.290;2024-03-25T13:17:54;15.00;15.00;15.00;;
48148;Laerm;29352;48.708;9.290;2024-03-25T13:20:19;15.00;15.00;15.00;;
48148;Laerm;29352;48.708;9.290;2024-03-25T13:22:45;15.00;15.00;15.00;;
48148;Laerm;29352;48.708;9.290;2024-03-25T13:25:12;15.00;15.00;15.00;;
48148;Laerm;29352;48.708;9.290;2024-03-25T13:27:38;15.00;15.00;15.00;;
48148;Laerm;29352;48.708;9.290;2024-03-25T13:30:05;15.00;15.00;15.00;;
48148;Laerm;29352;48.708;9.290;2024-03-25T13:32:31;15.00;15.00;15.00;;
48148;Laerm;29352;48.708;9.290;2024-03-25T13:37:22;15.00;15.00;15.00;;
48148;Laerm;29352;48.708;9.290;2024-03-25T13:39:49;15.00;15.00;15.00;;
48148;Laerm;29352;48.708;9.290;2024-03-25T13:42:16;15.00;15.00;15.00;;
48148;Laerm;29352;48.708;9.290;2024-03-25T13:44:41;15.00;15.00;15.00;;
48148;Laerm;29352;48.708;9.290;2024-03-25T13:47:07;15.00;15.00;15.00;;
48148;Laerm;29352;48.708;9.290;2024-03-25T13:49:35;15.00;15.00;15.00;;